sensor_id;sensor_type;location;lat;lon;timestamp;P1;durP1;ratioP1;P2;durP2;ratioP2
16440;SDS011;8330;-33.858;151.184;2023-09-12T00:00:09;15.00;;;10.77;;
16440;SDS011;8330;-33.858;151.184;2023-09-12T00:02:41;11.98;;;9.57;;
16440;SDS011;8330;-33.858;151.184;2023-09-12T00:05:12;15.65;;;10.50;;
16440;SDS011;8330;-33.858;151.184;2023-09-12T00:07:43;14.02;;;10.90;;
16440;SDS011;8330;-33.858;151.184;2023-09-12T00:10:14;10.48;;;8.40;;
16440;SDS011;8330;-33.858;151.184;2023-09-12T00:12:44;12.77;;;8.50;;
16440;SDS011;8330;-33.858;151.184;2023-09-12T00:15:15;9.35;;;8.13;;
16440;SDS011;8330;-33.858;151.184;2023-09-12T00:17:48;9.25;;;7.32;;
16440;SDS011;8330;-33.858;151.184;2023-09-12T00:20:19;9.95;;;7.07;;
16440;SDS011;8330;-33.858;151.184;2023-09-12T00:22:50;9.38;;;8.00;;
16440;SDS011;8330;-33.858;151.184;2023-09-12T00:25:22;10.00;;;7.47;;
16440;SDS011;8330;-33.858;151.184;2023-09-12T00:27:53;12.85;;;9.20;;
16440;SDS011;8330;-33.858;151.184;2023-09-12T00:30:24;15.00;;;10.32;;
16440;SDS011;8330;-33.858;151.184;2023-09-12T00:32:56;10.73;;;8.98;;
16440;SDS011;8330;-33.858;151.184;2023-09-12T00:35:27;13.75;;;9.77;;
16440;SDS011;8330;-33.858;151.184;2023-09-12T00:37:58;12.27;;;9.18;;
16440;SDS011;8330;-33.858;151.184;2023-09-12T00:40:29;12.63;;;9.50;;
16440;SDS011;8330;-33.858;151.184;2023-09-12T00:42:58;14.80;;;10.38;;
16440;SDS011;8330;-33.858;151.184;2023-09-12T00:45:29;10.88;;;7.80;;
16440;SDS011;8330;-33.858;151.184;2023-09-12T00:48:01;12.57;;;8.30;;
16440;SDS011;8330;-33.858;151.184;2023-09-12T00:50:34;12.13;;;9.30;;
16440;SDS011;8330;-33.858;151.184;2023-09-12T00:53:05;10.60;;;9.43;;
16440;SDS011;8330;-33.858;151.184;2023-09-12T00:55:37;13.90;;;10.35;;
16440;SDS011;8330;-33.858;151.184;2023-09-12T00:58:14;13.18;;;9.50;;
16440;SDS011;8330;-33.858;151.184;2023-09-12T01:00:45;11.30;;;9.00;;
16440;SDS011;8330;-33.858;151.184;2023-09-12T01:03:18;9.85;;;8.00;;
16440;SDS011;8330;-33.858;151.184;2023-09-12T01:05:49;7.88;;;7.07;;
16440;SDS011;8330;-33.858;151.184;2023-09-12T01:08:21;12.63;;;8.13;;
16440;SDS011;8330;-33.858;151.184;2023-09-12T01:10:52;10.75;;;7.35;;
16440;SDS011;8330;-33.858;151.184;2023-09-12T01:13:24;10.40;;;7.50;;
16440;SDS011;8330;-33.858;151.184;2023-09-12T01:15:55;12.07;;;8.02;;
16440;SDS011;8330;-33.858;151.184;2023-09-12T01:18:27;9.27;;;7.72;;
16440;SDS011;8330;-33.858;151.184;2023-09-12T01:21:04;10.43;;;7.72;;
16440;SDS011;8330;-33.858;151.184;2023-09-12T01:24:05;10.50;;;6.22;;
16440;SDS011;8330;-33.858;151.184;2023-09-12T01:27:17;7.13;;;5.15;;
16440;SDS011;8330;-33.858;151.184;2023-09-12T01:29:51;8.02;;;6.53;;
16440;SDS011;8330;-33.858;151.184;2023-09-12T01:32:25;8.30;;;6.35;;
16440;SDS011;8330;-33.858;151.184;2023-09-12T01:34:58;9.88;;;7.10;;
16440;SDS011;8330;-33.858;151.184;2023-09-12T01:37:29;11.40;;;6.55;;
16440;SDS011;8330;-33.858;151.184;2023-09-12T01:40:01;7.55;;;6.25;;
16440;SDS011;8330;-33.858;151.184;2023-09-12T01:42:35;8.75;;;6.72;;
16440;SDS011;8330;-33.858;151.184;2023-09-12T01:45:08;9.27;;;5.97;;
16440;SDS011;8330;-33.858;151.184;2023-09-12T01:47:40;7.97;;;6.40;;
16440;SDS011;8330;-33.858;151.184;2023-09-12T01:50:12;7.38;;;6.22;;
16440;SDS011;8330;-33.858;151.184;2023-09-12T01:52:44;8.43;;;5.80;;
16440;SDS011;8330;-33.858;151.184;2023-09-12T01:55:15;6.03;;;5.32;;
16440;SDS011;8330;-33.858;151.184;2023-09-12T01:57:49;5.10;;;4.32;;
16440;SDS011;8330;-33.858;151.184;2023-09-12T02:00:20;6.68;;;4.50;;
16440;SDS011;8330;-33.858;151.184;2023-09-12T02:02:51;5.85;;;4.93;;
16440;SDS011;8330;-33.858;151.184;2023-09-12T02:05:23;8.32;;;5.70;;
16440;SDS011;8330;-33.858;151.184;2023-09-12T02:07:55;6.53;;;5.07;;
16440;SDS011;8330;-33.858;151.184;2023-09-12T02:10:26;5.18;;;4.25;;
16440;SDS011;8330;-33.858;151.184;2023-09-12T02:12:59;7.80;;;4.93;;
16440;SDS011;8330;-33.858;151.184;2023-09-12T02:15:29;6.32;;;4.97;;
16440;SDS011;8330;-33.858;151.184;2023-09-12T02:18:00;4.85;;;4.35;;
16440;SDS011;8330;-33.858;151.184;2023-09-12T02:20:31;4.50;;;3.60;;
16440;SDS011;8330;-33.858;151.184;2023-09-12T02:23:02;5.55;;;4.00;;
16440;SDS011;8330;-33.858;151.184;2023-09-12T02:25:33;5.55;;;3.85;;
16440;SDS011;8330;-33.858;151.184;2023-09-12T02:28:09;4.47;;;3.38;;
16440;SDS011;8330;-33.858;151.184;2023-09-12T02:30:39;8.00;;;6.05;;
16440;SDS011;8330;-33.858;151.184;2023-09-12T02:33:10;9.63;;;6.45;;
16440;SDS011;8330;-33.858;151.184;2023-09-12T02:35:44;7.03;;;6.20;;
16440;SDS011;8330;-33.858;151.184;2023-09-12T02:38:14;7.55;;;5.97;;
16440;SDS011;8330;-33.858;151.184;2023-09-12T02:40:48;7.40;;;5.75;;
16440;SDS011;8330;-33.858;151.184;2023-09-12T02:43:21;7.25;;;5.25;;
16440;SDS011;8330;-33.858;151.184;2023-09-12T02:45:51;6.97;;;4.50;;
16440;SDS011;8330;-33.858;151.184;2023-09-12T02:48:22;11.98;;;5.00;;
16440;SDS011;8330;-33.858;151.184;2023-09-12T02:50:53;9.95;;;5.47;;
16440;SDS011;8330;-33.858;151.184;2023-09-12T02:53:24;7.43;;;5.95;;
16440;SDS011;8330;-33.858;151.184;2023-09-12T02:55:54;13.88;;;7.10;;
16440;SDS011;8330;-33.858;151.184;2023-09-12T02:58:27;8.82;;;6.00;;
16440;SDS011;8330;-33.858;151.184;2023-09-12T03:00:58;10.02;;;6.38;;
16440;SDS011;8330;-33.858;151.184;2023-09-12T03:03:31;9.30;;;7.15;;
16440;SDS011;8330;-33.858;151.184;2023-09-12T03:06:02;12.75;;;7.53;;
16440;SDS011;8330;-33.858;151.184;2023-09-12T03:08:33;10.02;;;8.07;;
16440;SDS011;8330;-33.858;151.184;2023-09-12T03:11:04;10.23;;;7.70;;
16440;SDS011;8330;-33.858;151.184;2023-09-12T03:13:37;15.05;;;8.30;;
16440;SDS011;8330;-33.858;151.184;2023-09-12T03:16:10;12.77;;;8.32;;
16440;SDS011;8330;-33.858;151.184;2023-09-12T03:18:41;11.32;;;8.18;;
16440;SDS011;8330;-33.858;151.184;2023-09-12T03:21:11;12.55;;;8.60;;
16440;SDS011;8330;-33.858;151.184;2023-09-12T03:23:42;15.23;;;8.90;;
16440;SDS011;8330;-33.858;151.184;2023-09-12T03:26:13;13.23;;;9.02;;
16440;SDS011;8330;-33.858;151.184;2023-09-12T03:28:49;13.52;;;9.32;;
16440;SDS011;8330;-33.858;151.184;2023-09-12T03:31:20;13.05;;;8.63;;
16440;SDS011;8330;-33.858;151.184;2023-09-12T03:33:51;15.05;;;9.35;;
16440;SDS011;8330;-33.858;151.184;2023-09-12T03:36:23;14.57;;;9.23;;
16440;SDS011;8330;-33.858;151.184;2023-09-12T03:38:53;12.00;;;8.90;;
16440;SDS011;8330;-33.858;151.184;2023-09-12T03:41:24;11.50;;;9.00;;
16440;SDS011;8330;-33.858;151.184;2023-09-12T03:43:57;11.23;;;8.82;;
16440;SDS011;8330;-33.858;151.184;2023-09-12T03:46:28;11.93;;;9.02;;
16440;SDS011;8330;-33.858;151.184;2023-09-12T03:48:59;13.32;;;8.98;;
16440;SDS011;8330;-33.858;151.184;2023-09-12T03:51:29;13.88;;;9.23;;
16440;SDS011;8330;-33.858;151.184;2023-09-12T03:54:04;14.25;;;9.38;;
16440;SDS011;8330;-33.858;151.184;2023-09-12T03:56:35;16.58;;;9.55;;
16440;SDS011;8330;-33.858;151.184;2023-09-12T03:59:08;12.77;;;9.30;;
16440;SDS011;8330;-33.858;151.184;2023-09-12T04:01:38;11.77;;;8.95;;
16440;SDS011;8330;-33.858;151.184;2023-09-12T04:04:09;17.08;;;9.73;;
16440;SDS011;8330;-33.858;151.184;2023-09-12T04:06:40;12.20;;;8.60;;
16440;SDS011;8330;-33.858;151.184;2023-09-12T04:09:11;18.08;;;9.27;;
16440;SDS011;8330;-33.858;151.184;2023-09-12T04:11:42;11.52;;;8.80;;
16440;SDS011;8330;-33.858;151.184;2023-09-12T04:14:14;11.75;;;8.75;;
16440;SDS011;8330;-33.858;151.184;2023-09-12T04:16:46;12.32;;;9.00;;
16440;SDS011;8330;-33.858;151.184;2023-09-12T04:19:17;13.23;;;9.38;;
16440;SDS011;8330;-33.858;151.184;2023-09-12T04:21:48;12.52;;;9.27;;
16440;SDS011;8330;-33.858;151.184;2023-09-12T04:24:19;13.80;;;9.55;;
16440;SDS011;8330;-33.858;151.184;2023-09-12T04:26:50;12.98;;;8.93;;
16440;SDS011;8330;-33.858;151.184;2023-09-12T04:29:22;10.13;;;8.82;;
16440;SDS011;8330;-33.858;151.184;2023-09-12T04:31:53;11.02;;;8.40;;
16440;SDS011;8330;-33.858;151.184;2023-09-12T04:34:25;12.30;;;8.90;;
16440;SDS011;8330;-33.858;151.184;2023-09-12T04:36:57;13.82;;;8.98;;
16440;SDS011;8330;-33.858;151.184;2023-09-12T04:39:28;12.23;;;9.23;;
16440;SDS011;8330;-33.858;151.184;2023-09-12T04:41:59;11.27;;;8.98;;
16440;SDS011;8330;-33.858;151.184;2023-09-12T04:44:33;11.60;;;8.95;;
16440;SDS011;8330;-33.858;151.184;2023-09-12T04:47:04;15.85;;;8.95;;
16440;SDS011;8330;-33.858;151.184;2023-09-12T04:49:36;16.40;;;9.20;;
16440;SDS011;8330;-33.858;151.184;2023-09-12T04:52:06;13.38;;;9.10;;
16440;SDS011;8330;-33.858;151.184;2023-09-12T04:54:37;14.57;;;8.85;;
16440;SDS011;8330;-33.858;151.184;2023-09-12T04:57:08;11.65;;;9.25;;
16440;SDS011;8330;-33.858;151.184;2023-09-12T04:59:40;11.63;;;8.70;;
16440;SDS011;8330;-33.858;151.184;2023-09-12T05:02:11;11.95;;;8.80;;
16440;SDS011;8330;-33.858;151.184;2023-09-12T05:04:42;10.20;;;8.40;;
16440;SDS011;8330;-33.858;151.184;2023-09-12T05:07:13;11.00;;;8.35;;
16440;SDS011;8330;-33.858;151.184;2023-09-12T05:09:44;11.32;;;8.45;;
16440;SDS011;8330;-33.858;151.184;2023-09-12T05:12:15;9.95;;;8.23;;
16440;SDS011;8330;-33.858;151.184;2023-09-12T05:14:47;10.70;;;8.40;;
16440;SDS011;8330;-33.858;151.184;2023-09-12T05:17:18;13.30;;;8.50;;
16440;SDS011;8330;-33.858;151.184;2023-09-12T05:19:49;11.25;;;8.57;;
16440;SDS011;8330;-33.858;151.184;2023-09-12T05:22:20;11.52;;;8.50;;
16440;SDS011;8330;-33.858;151.184;2023-09-12T05:24:50;9.90;;;8.40;;
16440;SDS011;8330;-33.858;151.184;2023-09-12T05:27:21;10.95;;;8.20;;
16440;SDS011;8330;-33.858;151.184;2023-09-12T05:29:54;10.27;;;8.40;;
16440;SDS011;8330;-33.858;151.184;2023-09-12T05:32:24;10.30;;;8.20;;
16440;SDS011;8330;-33.858;151.184;2023-09-12T05:34:55;9.88;;;8.02;;
16440;SDS011;8330;-33.858;151.184;2023-09-12T05:37:26;10.93;;;8.57;;
16440;SDS011;8330;-33.858;151.184;2023-09-12T05:39:57;11.23;;;8.57;;
16440;SDS011;8330;-33.858;151.184;2023-09-12T05:42:27;13.40;;;8.50;;
16440;SDS011;8330;-33.858;151.184;2023-09-12T05:45:00;11.02;;;8.68;;
16440;SDS011;8330;-33.858;151.184;2023-09-12T05:47:31;12.23;;;7.95;;
16440;SDS011;8330;-33.858;151.184;2023-09-12T05:50:01;11.82;;;8.20;;
16440;SDS011;8330;-33.858;151.184;2023-09-12T05:52:33;12.13;;;8.30;;
16440;SDS011;8330;-33.858;151.184;2023-09-12T05:55:03;11.05;;;7.90;;
16440;SDS011;8330;-33.858;151.184;2023-09-12T05:57:34;9.82;;;7.53;;
16440;SDS011;8330;-33.858;151.184;2023-09-12T06:00:07;10.60;;;7.00;;
16440;SDS011;8330;-33.858;151.184;2023-09-12T06:02:43;10.35;;;7.15;;
16440;SDS011;8330;-33.858;151.184;2023-09-12T06:05:14;9.00;;;6.32;;
16440;SDS011;8330;-33.858;151.184;2023-09-12T06:07:45;8.95;;;6.75;;
16440;SDS011;8330;-33.858;151.184;2023-09-12T06:10:16;10.80;;;6.88;;
16440;SDS011;8330;-33.858;151.184;2023-09-12T06:12:47;9.20;;;7.10;;
16440;SDS011;8330;-33.858;151.184;2023-09-12T06:15:20;10.23;;;6.40;;
16440;SDS011;8330;-33.858;151.184;2023-09-12T06:17:50;7.97;;;6.72;;
16440;SDS011;8330;-33.858;151.184;2023-09-12T06:20:22;7.93;;;5.95;;
16440;SDS011;8330;-33.858;151.184;2023-09-12T06:22:53;7.63;;;6.35;;
16440;SDS011;8330;-33.858;151.184;2023-09-12T06:25:25;7.53;;;6.40;;
16440;SDS011;8330;-33.858;151.184;2023-09-12T06:27:55;8.40;;;6.65;;
16440;SDS011;8330;-33.858;151.184;2023-09-12T06:30:28;8.13;;;6.47;;
16440;SDS011;8330;-33.858;151.184;2023-09-12T06:32:59;8.35;;;6.38;;
16440;SDS011;8330;-33.858;151.184;2023-09-12T06:35:30;9.50;;;6.13;;
16440;SDS011;8330;-33.858;151.184;2023-09-12T06:38:02;8.10;;;6.95;;
16440;SDS011;8330;-33.858;151.184;2023-09-12T06:40:33;10.35;;;6.72;;
16440;SDS011;8330;-33.858;151.184;2023-09-12T06:43:04;9.68;;;7.45;;
16440;SDS011;8330;-33.858;151.184;2023-09-12T06:45:39;9.50;;;6.35;;
16440;SDS011;8330;-33.858;151.184;2023-09-12T06:48:10;10.20;;;7.20;;
16440;SDS011;8330;-33.858;151.184;2023-09-12T06:50:45;8.65;;;6.25;;
16440;SDS011;8330;-33.858;151.184;2023-09-12T06:53:16;8.73;;;6.18;;
16440;SDS011;8330;-33.858;151.184;2023-09-12T06:55:47;8.05;;;6.20;;
16440;SDS011;8330;-33.858;151.184;2023-09-12T06:58:17;10.65;;;6.07;;
16440;SDS011;8330;-33.858;151.184;2023-09-12T07:00:51;10.27;;;6.03;;
16440;SDS011;8330;-33.858;151.184;2023-09-12T07:03:21;11.98;;;6.28;;
16440;SDS011;8330;-33.858;151.184;2023-09-12T07:05:52;9.35;;;6.50;;
16440;SDS011;8330;-33.858;151.184;2023-09-12T07:08:23;11.05;;;6.63;;
16440;SDS011;8330;-33.858;151.184;2023-09-12T07:10:54;8.35;;;5.72;;
16440;SDS011;8330;-33.858;151.184;2023-09-12T07:13:34;7.10;;;5.85;;
16440;SDS011;8330;-33.858;151.184;2023-09-12T07:16:07;8.10;;;5.93;;
16440;SDS011;8330;-33.858;151.184;2023-09-12T07:18:38;8.73;;;5.68;;
16440;SDS011;8330;-33.858;151.184;2023-09-12T07:21:09;10.70;;;6.18;;
16440;SDS011;8330;-33.858;151.184;2023-09-12T07:23:40;8.02;;;6.65;;
16440;SDS011;8330;-33.858;151.184;2023-09-12T07:26:12;8.70;;;6.03;;
16440;SDS011;8330;-33.858;151.184;2023-09-12T07:28:43;7.90;;;5.85;;
16440;SDS011;8330;-33.858;151.184;2023-09-12T07:31:16;8.90;;;6.53;;
16440;SDS011;8330;-33.858;151.184;2023-09-12T07:33:47;8.18;;;5.82;;
16440;SDS011;8330;-33.858;151.184;2023-09-12T07:36:17;10.18;;;5.85;;
16440;SDS011;8330;-33.858;151.184;2023-09-12T07:38:48;8.75;;;6.30;;
16440;SDS011;8330;-33.858;151.184;2023-09-12T07:41:19;8.75;;;6.53;;
16440;SDS011;8330;-33.858;151.184;2023-09-12T07:43:50;8.48;;;7.28;;
16440;SDS011;8330;-33.858;151.184;2023-09-12T07:46:23;7.75;;;6.07;;
16440;SDS011;8330;-33.858;151.184;2023-09-12T07:48:53;6.80;;;5.78;;
16440;SDS011;8330;-33.858;151.184;2023-09-12T07:51:24;9.25;;;6.43;;
16440;SDS011;8330;-33.858;151.184;2023-09-12T07:53:55;8.43;;;6.05;;
16440;SDS011;8330;-33.858;151.184;2023-09-12T07:56:27;9.02;;;6.78;;
16440;SDS011;8330;-33.858;151.184;2023-09-12T07:58:58;8.55;;;6.25;;
16440;SDS011;8330;-33.858;151.184;2023-09-12T08:01:32;7.85;;;6.22;;
16440;SDS011;8330;-33.858;151.184;2023-09-12T08:04:03;11.45;;;6.65;;
16440;SDS011;8330;-33.858;151.184;2023-09-12T08:06:34;7.18;;;6.20;;
16440;SDS011;8330;-33.858;151.184;2023-09-12T08:09:05;7.20;;;5.53;;
16440;SDS011;8330;-33.858;151.184;2023-09-12T08:11:36;7.20;;;5.97;;
16440;SDS011;8330;-33.858;151.184;2023-09-12T08:14:06;9.30;;;6.40;;
16440;SDS011;8330;-33.858;151.184;2023-09-12T08:16:41;9.85;;;6.15;;
16440;SDS011;8330;-33.858;151.184;2023-09-12T08:19:12;6.88;;;5.75;;
16440;SDS011;8330;-33.858;151.184;2023-09-12T08:21:43;7.60;;;5.65;;
16440;SDS011;8330;-33.858;151.184;2023-09-12T08:24:14;8.13;;;6.00;;
16440;SDS011;8330;-33.858;151.184;2023-09-12T08:26:45;7.47;;;5.53;;
16440;SDS011;8330;-33.858;151.184;2023-09-12T08:29:18;7.63;;;6.03;;
16440;SDS011;8330;-33.858;151.184;2023-09-12T08:31:53;8.45;;;5.68;;
16440;SDS011;8330;-33.858;151.184;2023-09-12T08:34:24;9.45;;;6.05;;
16440;SDS011;8330;-33.858;151.184;2023-09-12T08:36:55;8.75;;;6.70;;
16440;SDS011;8330;-33.858;151.184;2023-09-12T08:39:26;7.75;;;6.13;;
16440;SDS011;8330;-33.858;151.184;2023-09-12T08:42:08;9.18;;;6.30;;
16440;SDS011;8330;-33.858;151.184;2023-09-12T08:44:43;7.30;;;5.20;;
16440;SDS011;8330;-33.858;151.184;2023-09-12T08:47:15;6.57;;;5.53;;
16440;SDS011;8330;-33.858;151.184;2023-09-12T08:49:50;7.88;;;5.70;;
16440;SDS011;8330;-33.858;151.184;2023-09-12T08:52:21;6.72;;;5.40;;
16440;SDS011;8330;-33.858;151.184;2023-09-12T08:54:52;6.75;;;5.53;;
16440;SDS011;8330;-33.858;151.184;2023-09-12T08:57:22;6.65;;;5.05;;
16440;SDS011;8330;-33.858;151.184;2023-09-12T08:59:53;8.48;;;5.93;;
16440;SDS011;8330;-33.858;151.184;2023-09-12T09:02:26;8.48;;;5.88;;
16440;SDS011;8330;-33.858;151.184;2023-09-12T09:04:57;8.90;;;5.72;;
16440;SDS011;8330;-33.858;151.184;2023-09-12T09:07:31;6.65;;;5.25;;
16440;SDS011;8330;-33.858;151.184;2023-09-12T09:10:02;7.72;;;5.70;;
16440;SDS011;8330;-33.858;151.184;2023-09-12T09:12:34;7.65;;;5.30;;
16440;SDS011;8330;-33.858;151.184;2023-09-12T09:15:23;7.18;;;5.22;;
16440;SDS011;8330;-33.858;151.184;2023-09-12T09:17:57;6.00;;;5.40;;
16440;SDS011;8330;-33.858;151.184;2023-09-12T09:20:32;7.40;;;5.45;;
16440;SDS011;8330;-33.858;151.184;2023-09-12T09:23:03;8.15;;;5.75;;
16440;SDS011;8330;-33.858;151.184;2023-09-12T09:25:36;7.38;;;6.00;;
16440;SDS011;8330;-33.858;151.184;2023-09-12T09:28:16;8.88;;;6.10;;
16440;SDS011;8330;-33.858;151.184;2023-09-12T09:30:47;7.93;;;5.55;;
16440;SDS011;8330;-33.858;151.184;2023-09-12T09:33:22;9.65;;;5.43;;
16440;SDS011;8330;-33.858;151.184;2023-09-12T09:35:54;6.47;;;5.35;;
16440;SDS011;8330;-33.858;151.184;2023-09-12T09:38:32;8.85;;;5.25;;
16440;SDS011;8330;-33.858;151.184;2023-09-12T09:41:05;8.80;;;5.72;;
16440;SDS011;8330;-33.858;151.184;2023-09-12T09:43:36;10.52;;;6.10;;
16440;SDS011;8330;-33.858;151.184;2023-09-12T09:46:06;8.13;;;6.32;;
16440;SDS011;8330;-33.858;151.184;2023-09-12T09:48:50;11.50;;;7.20;;
16440;SDS011;8330;-33.858;151.184;2023-09-12T09:51:21;8.32;;;5.63;;
16440;SDS011;8330;-33.858;151.184;2023-09-12T09:53:52;8.65;;;5.93;;
16440;SDS011;8330;-33.858;151.184;2023-09-12T09:56:24;8.20;;;5.70;;
16440;SDS011;8330;-33.858;151.184;2023-09-12T09:58:56;7.63;;;5.60;;
16440;SDS011;8330;-33.858;151.184;2023-09-12T10:01:27;7.47;;;5.72;;
16440;SDS011;8330;-33.858;151.184;2023-09-12T10:04:01;12.20;;;6.40;;
16440;SDS011;8330;-33.858;151.184;2023-09-12T10:06:33;7.90;;;5.60;;
16440;SDS011;8330;-33.858;151.184;2023-09-12T10:09:07;7.53;;;5.97;;
16440;SDS011;8330;-33.858;151.184;2023-09-12T10:11:40;9.32;;;5.63;;
16440;SDS011;8330;-33.858;151.184;2023-09-12T10:14:12;6.22;;;5.35;;
16440;SDS011;8330;-33.858;151.184;2023-09-12T10:16:45;9.18;;;5.95;;
16440;SDS011;8330;-33.858;151.184;2023-09-12T10:19:20;9.48;;;6.20;;
16440;SDS011;8330;-33.858;151.184;2023-09-12T10:21:54;8.07;;;5.53;;
16440;SDS011;8330;-33.858;151.184;2023-09-12T10:24:31;8.23;;;5.78;;
16440;SDS011;8330;-33.858;151.184;2023-09-12T10:27:04;8.30;;;6.05;;
16440;SDS011;8330;-33.858;151.184;2023-09-12T10:29:35;8.23;;;5.68;;
16440;SDS011;8330;-33.858;151.184;2023-09-12T10:32:06;9.93;;;6.22;;
16440;SDS011;8330;-33.858;151.184;2023-09-12T10:34:39;9.10;;;6.30;;
16440;SDS011;8330;-33.858;151.184;2023-09-12T10:37:15;7.32;;;5.97;;
16440;SDS011;8330;-33.858;151.184;2023-09-12T10:39:48;8.15;;;5.53;;
16440;SDS011;8330;-33.858;151.184;2023-09-12T10:42:21;7.38;;;5.60;;
16440;SDS011;8330;-33.858;151.184;2023-09-12T10:44:54;8.73;;;6.47;;
16440;SDS011;8330;-33.858;151.184;2023-09-12T10:47:29;9.55;;;6.10;;
16440;SDS011;8330;-33.858;151.184;2023-09-12T10:50:05;7.82;;;5.78;;
16440;SDS011;8330;-33.858;151.184;2023-09-12T10:52:37;11.95;;;6.00;;
16440;SDS011;8330;-33.858;151.184;2023-09-12T10:55:09;7.95;;;5.90;;
16440;SDS011;8330;-33.858;151.184;2023-09-12T10:58:01;8.25;;;6.20;;
16440;SDS011;8330;-33.858;151.184;2023-09-12T11:00:33;8.32;;;6.40;;
16440;SDS011;8330;-33.858;151.184;2023-09-12T11:06:21;7.93;;;6.47;;
16440;SDS011;8330;-33.858;151.184;2023-09-12T11:11:46;10.88;;;6.47;;
16440;SDS011;8330;-33.858;151.184;2023-09-12T11:14:17;10.45;;;6.53;;
16440;SDS011;8330;-33.858;151.184;2023-09-12T11:19:55;8.88;;;6.32;;
16440;SDS011;8330;-33.858;151.184;2023-09-12T11:22:38;8.98;;;6.80;;
16440;SDS011;8330;-33.858;151.184;2023-09-12T11:25:19;8.20;;;6.20;;
16440;SDS011;8330;-33.858;151.184;2023-09-12T11:28:04;9.15;;;6.80;;
16440;SDS011;8330;-33.858;151.184;2023-09-12T11:30:35;8.40;;;6.57;;
16440;SDS011;8330;-33.858;151.184;2023-09-12T11:33:06;8.50;;;6.68;;
16440;SDS011;8330;-33.858;151.184;2023-09-12T11:35:41;8.80;;;6.72;;
16440;SDS011;8330;-33.858;151.184;2023-09-12T11:38:25;7.40;;;5.82;;
16440;SDS011;8330;-33.858;151.184;2023-09-12T11:41:01;6.93;;;6.10;;
16440;SDS011;8330;-33.858;151.184;2023-09-12T11:43:32;9.32;;;6.25;;
16440;SDS011;8330;-33.858;151.184;2023-09-12T11:46:06;9.50;;;6.43;;
16440;SDS011;8330;-33.858;151.184;2023-09-12T11:48:38;8.13;;;6.30;;
16440;SDS011;8330;-33.858;151.184;2023-09-12T11:51:10;8.38;;;6.63;;
16440;SDS011;8330;-33.858;151.184;2023-09-12T11:53:43;10.32;;;6.65;;
16440;SDS011;8330;-33.858;151.184;2023-09-12T11:56:21;7.63;;;6.35;;
16440;SDS011;8330;-33.858;151.184;2023-09-12T11:58:54;7.72;;;6.53;;
16440;SDS011;8330;-33.858;151.184;2023-09-12T12:01:33;8.20;;;7.10;;
16440;SDS011;8330;-33.858;151.184;2023-09-12T12:04:05;11.80;;;8.05;;
16440;SDS011;8330;-33.858;151.184;2023-09-12T12:06:37;9.25;;;7.63;;
16440;SDS011;8330;-33.858;151.184;2023-09-12T12:09:12;10.13;;;7.38;;
16440;SDS011;8330;-33.858;151.184;2023-09-12T12:11:45;8.57;;;7.10;;
16440;SDS011;8330;-33.858;151.184;2023-09-12T12:14:17;8.93;;;7.65;;
16440;SDS011;8330;-33.858;151.184;2023-09-12T12:16:47;9.73;;;7.22;;
16440;SDS011;8330;-33.858;151.184;2023-09-12T12:19:18;7.95;;;6.20;;
16440;SDS011;8330;-33.858;151.184;2023-09-12T12:21:49;10.07;;;6.78;;
16440;SDS011;8330;-33.858;151.184;2023-09-12T12:24:24;8.27;;;6.20;;
16440;SDS011;8330;-33.858;151.184;2023-09-12T12:27:04;7.40;;;6.53;;
16440;SDS011;8330;-33.858;151.184;2023-09-12T12:29:37;9.65;;;7.50;;
16440;SDS011;8330;-33.858;151.184;2023-09-12T12:32:10;8.27;;;7.07;;
16440;SDS011;8330;-33.858;151.184;2023-09-12T12:34:47;9.13;;;7.47;;
16440;SDS011;8330;-33.858;151.184;2023-09-12T12:37:18;11.20;;;7.20;;
16440;SDS011;8330;-33.858;151.184;2023-09-12T12:39:51;10.05;;;7.00;;
16440;SDS011;8330;-33.858;151.184;2023-09-12T12:42:22;8.40;;;6.85;;
16440;SDS011;8330;-33.858;151.184;2023-09-12T12:44:54;8.02;;;7.03;;
16440;SDS011;8330;-33.858;151.184;2023-09-12T12:47:25;9.18;;;7.38;;
16440;SDS011;8330;-33.858;151.184;2023-09-12T12:49:58;9.80;;;7.20;;
16440;SDS011;8330;-33.858;151.184;2023-09-12T12:52:28;10.50;;;7.85;;
16440;SDS011;8330;-33.858;151.184;2023-09-12T12:55:05;10.05;;;7.90;;
16440;SDS011;8330;-33.858;151.184;2023-09-12T12:57:38;8.70;;;7.03;;
16440;SDS011;8330;-33.858;151.184;2023-09-12T13:00:10;9.57;;;7.40;;
16440;SDS011;8330;-33.858;151.184;2023-09-12T13:02:42;8.93;;;7.40;;
16440;SDS011;8330;-33.858;151.184;2023-09-12T13:05:24;8.35;;;7.15;;
16440;SDS011;8330;-33.858;151.184;2023-09-12T13:07:56;9.13;;;7.78;;
16440;SDS011;8330;-33.858;151.184;2023-09-12T13:10:29;10.50;;;8.20;;
16440;SDS011;8330;-33.858;151.184;2023-09-12T13:13:00;8.98;;;7.40;;
16440;SDS011;8330;-33.858;151.184;2023-09-12T13:15:31;10.65;;;7.70;;
16440;SDS011;8330;-33.858;151.184;2023-09-12T13:18:03;9.38;;;7.82;;
16440;SDS011;8330;-33.858;151.184;2023-09-12T13:20:34;11.02;;;8.23;;
16440;SDS011;8330;-33.858;151.184;2023-09-12T13:23:04;10.60;;;8.88;;
16440;SDS011;8330;-33.858;151.184;2023-09-12T13:25:37;10.07;;;8.15;;
16440;SDS011;8330;-33.858;151.184;2023-09-12T13:28:08;11.63;;;9.27;;
16440;SDS011;8330;-33.858;151.184;2023-09-12T13:30:39;9.52;;;8.07;;
16440;SDS011;8330;-33.858;151.184;2023-09-12T13:33:13;9.93;;;7.68;;
16440;SDS011;8330;-33.858;151.184;2023-09-12T13:35:44;9.27;;;8.15;;
16440;SDS011;8330;-33.858;151.184;2023-09-12T13:38:16;10.05;;;8.10;;
16440;SDS011;8330;-33.858;151.184;2023-09-12T13:40:49;10.65;;;8.60;;
16440;SDS011;8330;-33.858;151.184;2023-09-12T13:43:20;10.05;;;8.85;;
16440;SDS011;8330;-33.858;151.184;2023-09-12T13:45:51;11.05;;;8.75;;
16440;SDS011;8330;-33.858;151.184;2023-09-12T13:48:22;11.55;;;8.80;;
16440;SDS011;8330;-33.858;151.184;2023-09-12T13:50:53;10.85;;;9.25;;
16440;SDS011;8330;-33.858;151.184;2023-09-12T13:53:23;10.00;;;8.70;;
16440;SDS011;8330;-33.858;151.184;2023-09-12T13:55:56;10.95;;;8.55;;
16440;SDS011;8330;-33.858;151.184;2023-09-12T13:58:28;10.48;;;9.05;;
16440;SDS011;8330;-33.858;151.184;2023-09-12T14:00:59;10.80;;;8.38;;
16440;SDS011;8330;-33.858;151.184;2023-09-12T14:03:30;10.13;;;8.10;;
16440;SDS011;8330;-33.858;151.184;2023-09-12T14:06:00;9.60;;;8.60;;
16440;SDS011;8330;-33.858;151.184;2023-09-12T14:08:33;12.90;;;9.02;;
16440;SDS011;8330;-33.858;151.184;2023-09-12T14:11:06;10.70;;;8.68;;
16440;SDS011;8330;-33.858;151.184;2023-09-12T14:13:37;9.98;;;8.77;;
16440;SDS011;8330;-33.858;151.184;2023-09-12T14:16:08;9.73;;;8.70;;
16440;SDS011;8330;-33.858;151.184;2023-09-12T14:18:39;12.07;;;9.68;;
16440;SDS011;8330;-33.858;151.184;2023-09-12T14:21:11;12.30;;;9.55;;
16440;SDS011;8330;-33.858;151.184;2023-09-12T14:23:42;10.65;;;8.88;;
16440;SDS011;8330;-33.858;151.184;2023-09-12T14:26:15;10.13;;;8.80;;
16440;SDS011;8330;-33.858;151.184;2023-09-12T14:28:46;12.30;;;9.50;;
16440;SDS011;8330;-33.858;151.184;2023-09-12T14:31:16;11.02;;;9.10;;
16440;SDS011;8330;-33.858;151.184;2023-09-12T14:33:48;9.77;;;8.77;;
16440;SDS011;8330;-33.858;151.184;2023-09-12T14:36:20;13.27;;;9.55;;
16440;SDS011;8330;-33.858;151.184;2023-09-12T14:38:50;14.05;;;9.80;;
16440;SDS011;8330;-33.858;151.184;2023-09-12T14:41:23;11.77;;;9.55;;
16440;SDS011;8330;-33.858;151.184;2023-09-12T14:43:54;12.35;;;9.65;;
16440;SDS011;8330;-33.858;151.184;2023-09-12T14:46:24;12.23;;;10.18;;
16440;SDS011;8330;-33.858;151.184;2023-09-12T14:48:55;12.00;;;9.40;;
16440;SDS011;8330;-33.858;151.184;2023-09-12T14:51:26;10.55;;;9.25;;
16440;SDS011;8330;-33.858;151.184;2023-09-12T14:53:56;11.63;;;9.13;;